createdAt,value
2023-05-21T00:00:21.001Z,17.49
2023-05-21T00:02:47.588Z,17.48
2023-05-21T00:05:15.480Z,17.48
2023-05-21T00:07:42.124Z,17.48
2023-05-21T00:10:09.041Z,17.47
2023-05-21T00:12:35.673Z,17.46
2023-05-21T00:15:02.474Z,17.48
2023-05-21T00:17:28.992Z,17.49
2023-05-21T00:19:56.868Z,17.49
2023-05-21T00:22:23.894Z,17.49
2023-05-21T00:24:50.723Z,17.50
2023-05-21T00:27:17.253Z,17.49
2023-05-21T00:29:44.489Z,17.48
2023-05-21T00:32:11.320Z,17.48
2023-05-21T00:34:38.233Z,17.48
2023-05-21T00:37:04.932Z,17.45
2023-05-21T00:39:31.413Z,17.43
2023-05-21T00:41:57.959Z,17.40
2023-05-21T00:44:25.394Z,17.39
2023-05-21T00:46:55.717Z,17.37
2023-05-21T00:49:24.531Z,17.34
2023-05-21T00:51:51.936Z,17.33
2023-05-21T00:54:18.929Z,17.30
2023-05-21T00:56:46.181Z,17.28
2023-05-21T02:12:09.244Z,16.28
2023-05-21T02:14:36.300Z,16.26
2023-05-21T02:17:03.265Z,16.25
2023-05-21T02:19:29.976Z,16.24
2023-05-21T02:21:56.922Z,16.25
2023-05-21T02:24:24.542Z,16.24
2023-05-21T02:26:52.323Z,16.25
2023-05-21T02:29:19.410Z,16.26
2023-05-21T02:31:46.227Z,16.26
2023-05-21T02:34:12.863Z,16.28
2023-05-21T02:36:41.659Z,16.28
2023-05-21T02:39:08.240Z,16.28
2023-05-21T02:41:34.865Z,16.28
2023-05-21T02:44:01.466Z,16.30
2023-05-21T02:46:28.066Z,16.30
2023-05-21T02:48:54.573Z,16.28
2023-05-21T02:51:21.120Z,16.28
2023-05-21T02:53:48.259Z,16.27
2023-05-21T02:56:15.114Z,16.25
2023-05-21T02:58:41.879Z,16.23
2023-05-21T03:01:08.528Z,16.21
2023-05-21T03:03:35.188Z,16.20
2023-05-21T03:06:01.809Z,16.17
2023-05-21T03:08:28.408Z,16.14
2023-05-21T03:10:55.465Z,16.10
2023-05-21T03:13:22.152Z,16.05
2023-05-21T03:15:48.928Z,16.01
2023-05-21T03:18:16.486Z,15.97
2023-05-21T03:20:45.952Z,15.96
2023-05-21T03:23:16.277Z,15.94
2023-05-21T03:25:43.495Z,15.91
2023-05-21T03:28:10.104Z,15.88
2023-05-21T03:30:38.266Z,15.85
2023-05-21T03:33:05.255Z,15.83
2023-05-21T03:35:32.083Z,15.80
2023-05-21T03:37:58.791Z,15.79
2023-05-21T03:40:25.325Z,15.77
2023-05-21T03:42:52.041Z,15.75
2023-05-21T03:45:18.659Z,15.74
2023-05-21T03:47:45.302Z,15.74
2023-05-21T03:50:13.116Z,15.73
2023-05-21T03:52:39.707Z,15.73
2023-05-21T03:55:06.781Z,15.72
2023-05-21T03:57:33.350Z,15.71
2023-05-21T04:00:00.012Z,15.71
2023-05-21T04:02:27.535Z,15.71
2023-05-21T04:04:55.901Z,15.70
2023-05-21T04:07:22.745Z,15.70
2023-05-21T04:09:49.321Z,15.71
2023-05-21T04:12:17.919Z,15.71
2023-05-21T04:14:44.519Z,15.70
2023-05-21T04:17:12.715Z,15.72
2023-05-21T04:19:39.609Z,15.73
2023-05-21T04:22:06.418Z,15.74
2023-05-21T04:24:33.051Z,15.75
2023-05-21T04:27:01.506Z,15.78
2023-05-21T04:29:30.050Z,15.80
2023-05-21T04:31:56.757Z,15.82
2023-05-21T04:34:23.478Z,15.83
2023-05-21T04:36:50.038Z,15.82
2023-05-21T04:39:17.155Z,15.85
2023-05-21T04:41:44.286Z,15.86
2023-05-21T04:44:15.141Z,15.88
2023-05-21T04:46:42.719Z,15.92
2023-05-21T04:49:10.277Z,15.94
2023-05-21T04:51:37.889Z,15.97
2023-05-21T04:54:04.526Z,16.00
2023-05-21T04:56:32.041Z,16.01
2023-05-21T04:58:59.181Z,16.05
2023-05-21T05:01:27.139Z,16.09
2023-05-21T05:03:54.082Z,16.11
2023-05-21T05:06:21.443Z,16.15
2023-05-21T05:08:48.357Z,16.19
2023-05-21T05:11:14.977Z,16.23
2023-05-21T05:13:41.983Z,16.28
2023-05-21T05:16:09.437Z,16.33
2023-05-21T05:18:36.648Z,16.36
2023-05-21T05:21:03.405Z,16.42
2023-05-21T05:23:29.984Z,16.48
2023-05-21T05:25:56.667Z,16.54
2023-05-21T05:28:23.280Z,16.58
2023-05-21T05:30:49.986Z,16.64
2023-05-21T05:33:16.664Z,16.66
2023-05-21T05:35:43.339Z,16.71
2023-05-21T05:38:10.653Z,16.74
2023-05-21T05:40:37.185Z,16.76
2023-05-21T05:43:03.812Z,16.79
2023-05-21T05:45:30.372Z,16.82
2023-05-21T05:47:57.010Z,16.86
2023-05-21T05:50:23.508Z,16.88
2023-05-21T05:52:50.163Z,16.90
2023-05-21T05:55:16.962Z,16.90
2023-05-21T05:57:45.110Z,16.91
2023-05-21T06:00:12.547Z,16.92
2023-05-21T06:02:39.358Z,16.92
2023-05-21T06:05:10.082Z,16.93
2023-05-21T06:07:40.735Z,16.92
2023-05-21T06:10:08.296Z,16.97
2023-05-21T06:12:35.661Z,16.99
2023-05-21T06:15:02.341Z,17.03
2023-05-21T06:17:29.004Z,17.06
2023-05-21T06:19:55.543Z,17.09
2023-05-21T06:22:24.864Z,17.13
2023-05-21T06:24:52.173Z,17.16
2023-05-21T06:27:18.778Z,17.19
2023-05-21T06:29:45.270Z,17.22
2023-05-21T06:32:11.889Z,17.26
2023-05-21T06:34:38.480Z,17.28
2023-05-21T06:37:05.375Z,17.31
2023-05-21T06:39:31.921Z,17.33
2023-05-21T06:41:58.516Z,17.38
2023-05-21T06:44:25.053Z,17.40
2023-05-21T06:46:51.608Z,17.44
2023-05-21T06:49:18.232Z,17.47
2023-05-21T06:51:44.860Z,17.50
2023-05-21T06:54:11.508Z,17.53
2023-05-21T06:56:38.119Z,17.57
2023-05-21T06:59:04.572Z,17.61
2023-05-21T07:01:32.295Z,17.66
2023-05-21T07:03:58.958Z,17.72
2023-05-21T07:06:25.680Z,17.77
2023-05-21T07:08:52.224Z,17.83
2023-05-21T07:11:18.960Z,17.87
2023-05-21T07:13:45.508Z,17.92
2023-05-21T07:16:12.002Z,17.97
2023-05-21T07:18:38.588Z,18.03
2023-05-21T07:21:05.050Z,18.08
2023-05-21T07:23:31.531Z,18.15
2023-05-21T07:25:58.044Z,18.21
2023-05-21T07:28:24.557Z,18.28
2023-05-21T07:30:51.085Z,18.34
2023-05-21T07:33:20.545Z,18.39
2023-05-21T07:35:47.071Z,18.46
2023-05-21T07:38:13.696Z,18.52
2023-05-21T07:40:40.414Z,18.56
2023-05-21T07:43:06.984Z,18.61
2023-05-21T07:45:33.571Z,18.68
2023-05-21T07:48:00.208Z,18.71
2023-05-21T07:50:26.930Z,18.78
2023-05-21T07:52:53.587Z,18.82
2023-05-21T07:55:20.277Z,18.85
2023-05-21T07:57:47.128Z,18.91
2023-05-21T08:00:14.347Z,18.96
2023-05-21T08:02:41.064Z,19.02
2023-05-21T08:05:08.220Z,19.08
2023-05-21T08:07:35.019Z,19.14
2023-05-21T09:05:09.438Z,20.88
2023-05-21T09:07:43.222Z,20.96
2023-05-21T09:10:13.058Z,21.05
2023-05-21T09:12:40.014Z,21.15
2023-05-21T09:15:07.533Z,21.23
2023-05-21T09:17:34.101Z,21.33
2023-05-21T09:20:09.655Z,21.41
2023-05-21T09:22:49.978Z,21.50
2023-05-21T09:25:18.892Z,21.62
2023-05-21T09:27:45.610Z,21.71
2023-05-21T09:30:17.235Z,21.79
2023-05-21T09:32:44.841Z,21.90
2023-05-21T09:35:13.461Z,21.98
2023-05-21T09:37:48.249Z,22.08
2023-05-21T09:40:16.903Z,22.16
2023-05-21T09:42:48.253Z,22.23
2023-05-21T09:45:23.131Z,22.28
2023-05-21T09:47:51.594Z,22.36
2023-05-21T09:50:22.139Z,22.40
2023-05-21T09:52:52.683Z,22.46
2023-05-21T09:55:22.415Z,22.52
2023-05-21T09:57:51.045Z,22.59
2023-05-21T10:00:17.710Z,22.68
2023-05-21T10:02:48.850Z,22.75
2023-05-21T10:05:16.751Z,22.86
2023-05-21T10:07:49.369Z,22.93
2023-05-21T10:10:18.204Z,23.03
2023-05-21T10:12:47.160Z,23.10
2023-05-21T10:15:20.895Z,23.15
2023-05-21T10:17:49.658Z,23.23
2023-05-21T10:20:17.452Z,23.29
2023-05-21T10:22:44.841Z,23.35
2023-05-21T10:25:13.477Z,23.40
2023-05-21T10:27:41.520Z,23.49
2023-05-21T10:30:09.184Z,23.56
2023-05-21T10:32:35.802Z,23.63
2023-05-21T10:35:02.776Z,23.71
2023-05-21T10:37:29.778Z,23.78
2023-05-21T10:39:56.942Z,23.84
2023-05-21T10:42:32.389Z,23.89
2023-05-21T10:45:32.674Z,23.99
2023-05-21T10:48:12.479Z,24.17
2023-05-21T10:51:23.937Z,24.27
2023-05-21T10:53:59.384Z,24.42
2023-05-21T10:56:36.526Z,24.52
2023-05-21T10:59:30.150Z,24.62
2023-05-21T11:01:57.568Z,24.77
2023-05-21T11:04:27.153Z,24.87
2023-05-21T11:06:53.705Z,24.99
2023-05-21T11:09:20.449Z,25.11
2023-05-21T11:11:51.957Z,25.21
2023-05-21T11:14:42.944Z,25.28
2023-05-21T11:17:09.567Z,25.40
2023-05-21T11:19:41.486Z,25.48
2023-05-21T11:22:09.972Z,25.57
2023-05-21T11:24:38.921Z,25.67
2023-05-21T11:27:07.023Z,25.81
2023-05-21T11:29:45.032Z,25.92
2023-05-21T11:32:13.518Z,26.11
2023-05-21T11:34:48.047Z,26.30
2023-05-21T11:37:23.190Z,26.50
2023-05-21T11:39:51.326Z,26.72
2023-05-21T11:42:32.392Z,26.84
2023-05-21T11:45:00.376Z,27.00
2023-05-21T11:47:28.418Z,27.06
2023-05-21T11:49:57.134Z,27.10
2023-05-21T11:52:23.963Z,27.11
2023-05-21T11:54:56.725Z,27.07
2023-05-21T11:57:26.752Z,27.01
2023-05-21T11:59:53.271Z,26.93
2023-05-21T12:02:22.174Z,26.85
2023-05-21T12:04:50.110Z,26.78
2023-05-21T12:07:19.166Z,26.73
2023-05-21T12:09:50.324Z,26.69
2023-05-21T12:12:22.419Z,26.64
2023-05-21T12:14:50.551Z,26.63
2023-05-21T12:17:18.656Z,26.63
2023-05-21T12:19:46.386Z,26.63
2023-05-21T12:22:13.504Z,26.67
2023-05-21T12:24:40.090Z,26.74
2023-05-21T12:27:10.730Z,26.81
2023-05-21T12:29:38.876Z,26.89
2023-05-21T12:32:07.353Z,26.99
2023-05-21T12:34:47.022Z,27.10
2023-05-21T12:37:20.459Z,27.26
2023-05-21T12:39:48.618Z,27.41
2023-05-21T12:42:16.228Z,27.54
2023-05-21T12:44:48.960Z,27.62
2023-05-21T12:47:15.811Z,27.70
2023-05-21T12:49:54.763Z,27.72
2023-05-21T12:52:22.255Z,27.77
2023-05-21T12:54:53.798Z,27.79
2023-05-21T12:57:25.046Z,27.93
2023-05-21T12:59:55.278Z,28.12
2023-05-21T13:02:28.738Z,28.34
2023-05-21T13:05:03.938Z,28.59
2023-05-21T13:07:32.528Z,28.74
2023-05-21T13:10:01.055Z,28.85
2023-05-21T13:12:30.884Z,28.92
2023-05-21T13:14:59.326Z,28.97
2023-05-21T13:17:27.409Z,29.06
2023-05-21T13:20:09.354Z,29.10
2023-05-21T13:22:39.180Z,29.21
2023-05-21T13:25:07.274Z,29.25
2023-05-21T13:27:33.829Z,29.29
2023-05-21T13:30:01.080Z,29.34
2023-05-21T13:32:27.708Z,29.46
2023-05-21T13:34:54.299Z,29.61
2023-05-21T13:37:20.948Z,29.82
2023-05-21T13:39:47.658Z,30.06
2023-05-21T13:42:14.208Z,30.28
2023-05-21T13:44:40.787Z,30.49
2023-05-21T13:47:10.244Z,30.63
2023-05-21T13:49:37.380Z,30.72
2023-05-21T13:52:05.278Z,30.73
2023-05-21T13:54:31.725Z,30.67
2023-05-21T13:56:58.449Z,30.56
2023-05-21T13:59:25.076Z,30.40
2023-05-21T14:01:52.393Z,30.23
2023-05-21T14:04:19.831Z,30.05
2023-05-21T14:06:47.254Z,29.87
2023-05-21T14:09:14.121Z,29.70
2023-05-21T14:14:24.546Z,29.44
2023-05-21T14:16:51.823Z,29.32
2023-05-21T14:19:18.556Z,29.23
2023-05-21T14:21:45.347Z,29.14
2023-05-21T14:24:11.921Z,29.10
2023-05-21T14:26:41.329Z,29.07
2023-05-21T14:29:08.373Z,29.13
2023-05-21T14:31:35.269Z,29.26
2023-05-21T14:34:03.028Z,29.44
2023-05-21T14:36:30.064Z,29.65
2023-05-21T14:38:56.796Z,29.89
2023-05-21T14:41:27.319Z,30.11
2023-05-21T14:43:54.849Z,30.35
2023-05-21T14:46:22.181Z,30.56
2023-05-21T14:48:48.889Z,30.76
2023-05-21T14:51:15.735Z,30.96
2023-05-21T14:53:42.334Z,31.16
2023-05-21T14:56:09.125Z,31.37
2023-05-21T14:58:35.874Z,31.61
2023-05-21T15:01:04.333Z,31.82
2023-05-21T15:03:31.220Z,31.97
2023-05-21T15:05:58.676Z,32.04
2023-05-21T15:08:25.448Z,32.06
2023-05-21T15:10:52.312Z,32.05
2023-05-21T15:13:18.951Z,32.05
2023-05-21T15:15:45.532Z,32.03
2023-05-21T15:18:12.356Z,32.00
2023-05-21T15:20:38.955Z,31.91
2023-05-21T15:23:16.147Z,31.76
2023-05-21T15:25:44.363Z,31.58
2023-05-21T15:28:12.306Z,31.40
2023-05-21T15:30:39.256Z,31.23
2023-05-21T15:33:05.824Z,31.03
2023-05-21T15:35:32.836Z,30.86
2023-05-21T15:37:59.554Z,30.66
2023-05-21T15:40:27.217Z,30.46
2023-05-21T15:42:54.244Z,30.27
2023-05-21T15:45:21.119Z,30.09
2023-05-21T15:47:47.969Z,29.91
2023-05-21T15:50:14.896Z,29.77
2023-05-21T15:52:41.954Z,29.62
2023-05-21T15:55:09.415Z,29.47
2023-05-21T15:57:36.033Z,29.34
2023-05-21T16:00:03.013Z,29.20
2023-05-21T16:02:29.680Z,29.08
2023-05-21T16:04:56.318Z,28.99
2023-05-21T16:07:23.977Z,28.91
2023-05-21T16:09:50.551Z,28.85
2023-05-21T16:12:17.792Z,28.82
2023-05-21T16:14:44.388Z,28.78
2023-05-21T16:17:11.263Z,28.75
2023-05-21T16:19:38.058Z,28.72
2023-05-21T16:22:04.949Z,28.69
2023-05-21T16:24:31.544Z,28.63
2023-05-21T16:26:58.517Z,28.55
2023-05-21T16:29:25.139Z,28.45
2023-05-21T16:31:51.807Z,28.35
2023-05-21T16:34:18.471Z,28.27
2023-05-21T16:36:44.985Z,28.19
2023-05-21T16:39:11.540Z,28.11
2023-05-21T16:41:38.194Z,28.05
2023-05-21T16:44:04.722Z,28.00
2023-05-21T16:46:31.386Z,27.92
2023-05-21T16:48:58.079Z,27.86
2023-05-21T16:51:24.646Z,27.78
2023-05-21T16:53:51.318Z,27.69
2023-05-21T16:56:18.027Z,27.61
2023-05-21T16:58:44.761Z,27.51
2023-05-21T17:01:11.507Z,27.43
2023-05-21T17:03:39.723Z,27.36
2023-05-21T17:06:07.693Z,27.29
2023-05-21T17:08:34.273Z,27.23
2023-05-21T17:11:00.990Z,27.17
2023-05-21T17:13:27.659Z,27.12
2023-05-21T17:15:54.712Z,27.08
2023-05-21T17:18:21.404Z,27.03
2023-05-21T17:20:48.002Z,27.00
2023-05-21T17:23:14.921Z,26.93
2023-05-21T17:25:41.935Z,26.89
2023-05-21T17:28:08.755Z,26.85
2023-05-21T17:30:35.387Z,26.78
2023-05-21T17:33:03.734Z,26.78
2023-05-21T17:35:30.714Z,26.73
2023-05-21T17:37:57.383Z,26.70
2023-05-21T17:40:24.688Z,26.67
2023-05-21T17:42:54.712Z,26.65
2023-05-21T17:45:21.398Z,26.69
2023-05-21T17:47:48.116Z,26.69
2023-05-21T17:50:15.587Z,26.70
2023-05-21T17:52:42.187Z,26.71
2023-05-21T17:55:09.102Z,26.74
2023-05-21T17:57:36.108Z,26.75
2023-05-21T18:00:04.979Z,26.76
2023-05-21T18:02:31.871Z,26.78
2023-05-21T18:04:58.611Z,26.78
2023-05-21T18:07:25.741Z,26.77
2023-05-21T18:09:52.283Z,26.75
2023-05-21T18:12:18.947Z,26.75
2023-05-21T18:14:45.875Z,26.73
2023-05-21T18:17:13.018Z,26.71
2023-05-21T18:19:39.710Z,26.67
2023-05-21T18:22:06.710Z,26.64
2023-05-21T18:24:33.346Z,26.60
2023-05-21T18:26:59.996Z,26.56
2023-05-21T18:29:26.732Z,26.51
2023-05-21T18:31:53.838Z,26.47
2023-05-21T18:34:20.503Z,26.40
2023-05-21T18:36:48.178Z,26.35
2023-05-21T18:39:15.029Z,26.30
2023-05-21T18:41:41.697Z,26.24
2023-05-21T18:44:08.422Z,26.17
2023-05-21T18:46:35.222Z,26.10
2023-05-21T18:49:02.135Z,26.03
2023-05-21T18:51:28.773Z,25.96
2023-05-21T18:53:55.487Z,25.88
2023-05-21T18:56:22.264Z,25.82
2023-05-21T18:58:48.943Z,25.75
2023-05-21T19:01:16.266Z,25.66
2023-05-21T19:03:42.969Z,25.59
2023-05-21T19:06:09.636Z,25.52
2023-05-21T19:08:36.281Z,25.46
2023-05-21T19:11:03.350Z,25.37
2023-05-21T19:13:30.115Z,25.31
2023-05-21T19:15:58.411Z,25.24
2023-05-21T19:18:30.354Z,25.17
2023-05-21T19:20:57.582Z,25.10
2023-05-21T19:23:24.957Z,25.04
2023-05-21T19:25:51.549Z,25.00
2023-05-21T19:28:18.949Z,24.94
2023-05-21T19:30:46.318Z,24.92
2023-05-21T19:33:13.151Z,24.89
2023-05-21T19:35:41.533Z,24.87
2023-05-21T19:38:10.585Z,24.83
2023-05-21T19:40:37.529Z,24.83
2023-05-21T19:43:04.535Z,24.83
2023-05-21T19:45:31.203Z,24.81
2023-05-21T19:47:59.087Z,24.80
2023-05-21T19:50:28.519Z,24.79
2023-05-21T19:52:57.212Z,24.78
2023-05-21T19:55:24.565Z,24.75
2023-05-21T19:57:51.331Z,24.73
2023-05-21T20:00:19.082Z,24.69
2023-05-21T20:02:46.978Z,24.66
2023-05-21T20:05:13.825Z,24.62
2023-05-21T20:07:41.300Z,24.57
2023-05-21T20:10:08.831Z,24.54
2023-05-21T20:15:10.088Z,24.40
2023-05-21T20:17:39.355Z,24.33
2023-05-21T20:20:10.227Z,24.27
2023-05-21T20:22:36.981Z,24.22
2023-05-21T20:25:04.284Z,24.17
2023-05-21T20:27:30.895Z,24.13
2023-05-21T20:29:57.613Z,24.08
2023-05-21T20:32:24.116Z,24.06
2023-05-21T20:35:02.238Z,24.02
2023-05-21T20:37:32.407Z,24.00
2023-05-21T20:39:59.720Z,23.95
2023-05-21T20:42:34.375Z,23.91
2023-05-21T20:45:01.837Z,23.86
2023-05-21T20:47:32.085Z,23.84
2023-05-21T20:49:59.979Z,23.80
2023-05-21T20:52:26.790Z,23.77
2023-05-21T20:54:54.745Z,23.74
2023-05-21T20:57:26.009Z,23.72
2023-05-21T20:59:53.396Z,23.72
2023-05-21T21:02:20.660Z,23.71
2023-05-21T21:04:49.136Z,23.70
2023-05-21T21:07:18.080Z,23.68
2023-05-21T21:09:48.872Z,23.64
2023-05-21T21:12:26.007Z,23.63
2023-05-21T21:14:53.067Z,23.60
2023-05-21T21:17:19.794Z,23.57
2023-05-21T21:19:46.569Z,23.53
2023-05-21T21:22:14.346Z,23.48
2023-05-21T21:24:41.053Z,23.44
2023-05-21T21:27:07.748Z,23.37
2023-05-21T21:29:34.327Z,23.33
2023-05-21T21:32:01.320Z,23.28
2023-05-21T21:34:27.856Z,23.23
2023-05-21T21:36:54.449Z,23.20
2023-05-21T21:39:21.208Z,23.15
2023-05-21T21:41:47.798Z,23.13
2023-05-21T21:44:14.476Z,23.11
2023-05-21T21:46:41.082Z,23.07
2023-05-21T21:49:07.702Z,23.02
2023-05-21T21:51:34.938Z,23.00
2023-05-21T21:54:01.612Z,22.99
2023-05-21T21:56:29.189Z,22.97
2023-05-21T21:58:55.860Z,22.94
2023-05-21T22:01:22.559Z,22.93
2023-05-21T22:03:49.314Z,22.89
2023-05-21T22:06:16.091Z,22.88
2023-05-21T22:08:42.698Z,22.87
2023-05-21T22:11:09.405Z,22.85
2023-05-21T22:13:35.973Z,22.84
2023-05-21T22:16:02.755Z,22.81
2023-05-21T22:18:39.659Z,22.78
2023-05-21T22:21:09.561Z,22.75
2023-05-21T22:23:37.239Z,22.73
2023-05-21T22:26:04.094Z,22.72
2023-05-21T22:28:30.676Z,22.70
2023-05-21T22:30:57.355Z,22.69
2023-05-21T22:33:24.461Z,22.65
2023-05-21T22:35:51.206Z,22.62
2023-05-21T22:38:18.061Z,22.59
2023-05-21T22:40:44.679Z,22.57
2023-05-21T22:43:11.560Z,22.55
2023-05-21T22:45:38.468Z,22.52
2023-05-21T22:48:08.576Z,22.49
2023-05-21T22:50:36.171Z,22.46
2023-05-21T22:53:03.035Z,22.38
2023-05-21T22:55:29.806Z,22.32
2023-05-21T22:57:56.535Z,22.26
2023-05-21T23:00:23.535Z,22.25
2023-05-21T23:02:53.101Z,22.22
2023-05-21T23:05:20.894Z,22.21
2023-05-21T23:07:47.545Z,22.18
2023-05-21T23:10:14.213Z,22.15
2023-05-21T23:12:41.309Z,22.11
2023-05-21T23:15:10.025Z,22.10
2023-05-21T23:17:37.268Z,22.08
2023-05-21T23:20:04.778Z,22.06
2023-05-21T23:22:31.732Z,22.03
2023-05-21T23:24:58.550Z,22.01
2023-05-21T23:27:25.186Z,21.97
2023-05-21T23:29:51.792Z,21.94
2023-05-21T23:32:18.550Z,21.91
2023-05-21T23:34:45.302Z,21.89
2023-05-21T23:37:12.327Z,21.86
2023-05-21T23:39:38.979Z,21.84
2023-05-21T23:42:06.199Z,21.82
2023-05-21T23:44:33.220Z,21.80
2023-05-21T23:46:59.799Z,21.79
2023-05-21T23:49:26.478Z,21.74
2023-05-21T23:51:53.295Z,21.71
2023-05-21T23:54:19.943Z,21.70
2023-05-21T23:56:46.740Z,21.70
2023-05-21T23:59:14.190Z,21.69
